createdAt,value
2018-12-22T00:01:10.827Z,1.00
2018-12-22T00:03:38.284Z,0.90
2018-12-22T00:06:04.225Z,1.17
2018-12-22T00:08:32.083Z,0.90
2018-12-22T00:10:57.974Z,0.80
2018-12-22T00:13:23.820Z,1.10
2018-12-22T00:15:49.717Z,0.90
2018-12-22T00:18:15.767Z,1.82
2018-12-22T00:20:44.659Z,1.33
2018-12-22T00:23:10.609Z,1.67
2018-12-22T00:25:41.185Z,0.90
2018-12-22T00:28:07.099Z,2.12
2018-12-22T00:30:34.031Z,1.20
2018-12-22T00:32:59.964Z,0.90
2018-12-22T00:35:29.754Z,1.00
2018-12-22T00:37:55.682Z,0.70
2018-12-22T00:40:23.528Z,0.87
2018-12-22T00:42:49.617Z,0.80
2018-12-22T00:45:19.255Z,0.83
2018-12-22T00:47:45.177Z,0.80
2018-12-22T00:50:11.256Z,0.80
2018-12-22T00:52:37.202Z,0.90
2018-12-22T00:55:03.722Z,0.90
2018-12-22T00:57:29.637Z,0.80
2018-12-22T00:59:55.548Z,0.87
2018-12-22T01:02:24.416Z,0.70
2018-12-22T01:04:50.303Z,0.70
2018-12-22T01:07:19.202Z,0.80
2018-12-22T01:09:45.341Z,0.90
2018-12-22T01:12:14.447Z,0.70
2018-12-22T01:14:40.329Z,1.00
2018-12-22T01:17:09.926Z,0.70
2018-12-22T01:19:35.815Z,0.80
2018-12-22T01:22:03.732Z,1.20
2018-12-22T01:24:29.645Z,2.08
2018-12-22T01:26:55.531Z,0.80
2018-12-22T01:29:21.465Z,3.63
2018-12-22T01:31:47.340Z,0.80
2018-12-22T01:34:16.392Z,0.80
2018-12-22T01:36:43.418Z,1.35
2018-12-22T01:39:09.508Z,0.98
2018-12-22T01:41:35.366Z,1.30
2018-12-22T01:44:05.590Z,0.80
2018-12-22T01:46:31.899Z,1.12
2018-12-22T01:48:58.646Z,1.45
2018-12-22T01:51:24.539Z,0.70
2018-12-22T01:53:53.480Z,0.83
2018-12-22T01:56:19.355Z,0.70
2018-12-22T01:58:48.351Z,0.80
2018-12-22T02:01:14.240Z,0.90
2018-12-22T02:03:40.176Z,1.63
2018-12-22T02:06:06.048Z,0.80
2018-12-22T02:08:31.991Z,0.80
2018-12-22T02:11:01.784Z,0.90
2018-12-22T02:13:27.706Z,0.80
2018-12-22T02:15:55.428Z,0.90
2018-12-22T02:18:21.283Z,0.70
2018-12-22T02:20:51.180Z,1.10
2018-12-22T02:23:17.105Z,7.45
2018-12-22T02:25:43.967Z,0.70
2018-12-22T02:28:09.868Z,0.70
2018-12-22T02:30:38.705Z,0.80
2018-12-22T02:33:04.945Z,0.80
2018-12-22T02:35:34.323Z,0.93
2018-12-22T02:38:00.192Z,0.70
2018-12-22T02:40:26.103Z,1.10
2018-12-22T02:42:52.405Z,0.70
2018-12-22T02:45:18.324Z,0.70
2018-12-22T02:47:46.148Z,0.70
2018-12-22T02:50:12.081Z,0.98
2018-12-22T02:52:41.710Z,1.00
2018-12-22T02:55:07.650Z,0.70
2018-12-22T02:57:35.475Z,0.80
2018-12-22T03:00:01.404Z,0.80
2018-12-22T03:02:29.242Z,0.80
2018-12-22T03:04:55.169Z,4.15
2018-12-22T03:07:24.206Z,0.70
2018-12-22T03:09:50.086Z,0.70
2018-12-22T03:12:18.936Z,1.43
2018-12-22T03:14:44.800Z,1.22
2018-12-22T03:17:10.708Z,0.80
2018-12-22T03:19:36.642Z,1.00
2018-12-22T03:22:02.661Z,0.70
2018-12-22T03:24:31.995Z,0.70
2018-12-22T03:26:57.914Z,0.70
2018-12-22T03:29:25.624Z,0.70
2018-12-22T03:31:52.600Z,0.70
2018-12-22T03:34:20.262Z,0.80
2018-12-22T03:36:46.169Z,0.70
2018-12-22T03:39:15.665Z,0.80
2018-12-22T03:41:41.547Z,1.47
2018-12-22T03:44:10.940Z,1.90
2018-12-22T03:46:36.850Z,0.70
2018-12-22T03:49:04.462Z,2.20
2018-12-22T03:51:30.365Z,0.85
2018-12-22T03:53:56.354Z,0.70
2018-12-22T03:56:22.457Z,0.70
2018-12-22T03:58:48.347Z,1.02
2018-12-22T04:01:16.030Z,2.43
2018-12-22T04:03:41.924Z,0.70
2018-12-22T04:06:10.884Z,1.20
2018-12-22T04:08:36.928Z,0.90
2018-12-22T04:11:05.816Z,1.20
2018-12-22T04:13:31.749Z,0.70
2018-12-22T04:16:01.396Z,1.00
2018-12-22T04:18:27.254Z,0.93
2018-12-22T04:20:57.956Z,1.57
2018-12-22T04:23:23.862Z,0.80
2018-12-22T04:25:49.746Z,1.00
2018-12-22T04:28:15.659Z,0.80
2018-12-22T04:30:41.665Z,0.80
2018-12-22T04:33:07.527Z,1.67
2018-12-22T04:35:33.417Z,0.70
2018-12-22T04:38:01.917Z,0.80
2018-12-22T04:40:27.950Z,2.50
2018-12-22T04:42:56.972Z,0.90
2018-12-22T04:45:23.053Z,1.00
2018-12-22T04:47:51.278Z,2.25
2018-12-22T04:50:17.178Z,0.80
2018-12-22T04:52:46.627Z,1.43
2018-12-22T04:55:12.994Z,0.80
2018-12-22T04:57:40.091Z,1.07
2018-12-22T05:00:07.926Z,0.70
2018-12-22T05:02:34.727Z,1.10
2018-12-22T05:05:00.659Z,0.90
2018-12-22T05:07:26.500Z,1.00
2018-12-22T05:09:52.370Z,1.70
2018-12-22T05:12:18.278Z,1.50
2018-12-22T05:14:47.701Z,0.90
2018-12-22T05:17:13.593Z,1.22
2018-12-22T05:19:42.535Z,0.80
2018-12-22T05:22:08.423Z,0.90
2018-12-22T05:24:36.305Z,0.80
2018-12-22T05:27:02.251Z,1.00
2018-12-22T05:29:31.946Z,1.03
2018-12-22T05:31:57.811Z,5.53
2018-12-22T05:34:25.492Z,1.40
2018-12-22T05:36:51.362Z,6.25
2018-12-22T05:39:21.075Z,0.87
2018-12-22T05:41:47.008Z,3.30
2018-12-22T05:44:12.925Z,3.00
2018-12-22T05:46:38.821Z,2.20
2018-12-22T05:49:04.730Z,1.10
2018-12-22T05:51:32.056Z,1.53
2018-12-22T05:53:58.040Z,2.98
2018-12-22T05:56:26.797Z,0.80
2018-12-22T05:58:52.731Z,1.90
2018-12-22T06:01:22.944Z,3.70
2018-12-22T06:03:48.856Z,2.05
2018-12-22T06:06:16.365Z,1.53
2018-12-22T06:08:42.254Z,3.10
2018-12-22T06:11:12.124Z,5.13
2018-12-22T06:13:38.020Z,1.12
2018-12-22T06:16:05.862Z,3.90
2018-12-22T06:18:31.748Z,2.22
2018-12-22T06:20:57.623Z,2.17
2018-12-22T06:23:23.490Z,3.43
2018-12-22T06:25:49.393Z,1.73
2018-12-22T06:28:18.565Z,3.17
2018-12-22T06:30:44.557Z,8.03
2018-12-22T06:33:12.495Z,1.67
2018-12-22T06:35:38.370Z,3.75
2018-12-22T06:38:08.223Z,4.20
2018-12-22T06:40:34.313Z,2.05
2018-12-22T06:43:02.052Z,2.20
2018-12-22T06:45:27.950Z,1.55
2018-12-22T06:47:57.575Z,3.80
2018-12-22T06:50:23.476Z,4.90
2018-12-22T06:52:51.300Z,3.13
2018-12-22T06:55:17.419Z,1.75
2018-12-22T06:57:43.324Z,5.47
2018-12-22T07:00:17.467Z,2.63
2018-12-22T07:02:37.450Z,4.50
2018-12-22T07:05:04.086Z,5.60
2018-12-22T07:07:29.962Z,1.72
2018-12-22T07:09:57.847Z,4.43
2018-12-22T07:12:28.821Z,2.47
2018-12-22T07:14:54.894Z,3.27
2018-12-22T07:17:20.802Z,2.40
2018-12-22T07:19:47.568Z,2.50
2018-12-22T07:22:15.753Z,2.72
2018-12-22T07:24:41.641Z,1.45
2018-12-22T07:27:09.888Z,3.73
2018-12-22T07:29:35.951Z,6.72
2018-12-22T07:32:01.815Z,3.17
2018-12-22T07:34:27.724Z,1.60
2018-12-22T07:36:53.572Z,1.10
2018-12-22T07:39:19.859Z,14.73
2018-12-22T07:41:47.840Z,1.80
2018-12-22T07:44:13.750Z,8.63
2018-12-22T07:46:42.625Z,6.40
2018-12-22T07:49:09.438Z,3.98
2018-12-22T07:51:38.516Z,3.65
2018-12-22T07:54:04.457Z,5.17
2018-12-22T07:56:32.544Z,1.80
2018-12-22T07:58:58.490Z,5.40
2018-12-22T08:01:27.983Z,6.50
2018-12-22T08:03:53.877Z,6.50
2018-12-22T08:06:22.802Z,8.10
2018-12-22T08:08:48.650Z,6.75
2018-12-22T08:11:14.521Z,1.23
2018-12-22T08:13:40.416Z,2.00
2018-12-22T08:16:06.349Z,9.20
2018-12-22T08:18:33.811Z,6.83
2018-12-22T08:20:59.728Z,3.33
2018-12-22T08:23:29.712Z,8.93
2018-12-22T08:25:55.651Z,2.80
2018-12-22T08:28:23.543Z,8.37
2018-12-22T08:30:49.574Z,10.38
2018-12-22T08:33:19.083Z,8.27
2018-12-22T08:35:45.096Z,3.83
2018-12-22T08:38:11.944Z,0.88
2018-12-22T08:40:37.858Z,1.32
2018-12-22T08:43:07.100Z,6.00
2018-12-22T08:45:33.724Z,3.92
2018-12-22T08:47:59.683Z,2.12
2018-12-22T08:50:25.622Z,9.50
2018-12-22T08:52:51.519Z,5.33
2018-12-22T08:55:19.111Z,1.83
2018-12-22T08:57:44.989Z,4.47
2018-12-22T09:00:14.760Z,7.53
2018-12-22T09:02:40.670Z,8.60
2018-12-22T09:05:08.410Z,2.40
2018-12-22T09:07:34.304Z,2.85
2018-12-22T09:10:07.208Z,6.30
2018-12-22T09:12:33.177Z,8.45
2018-12-22T09:14:59.068Z,1.80
2018-12-22T09:17:26.927Z,9.93
2018-12-22T09:19:53.199Z,2.50
2018-12-22T09:22:19.057Z,2.70
2018-12-22T09:24:45.615Z,2.93
2018-12-22T09:27:11.507Z,8.70
2018-12-22T09:29:37.451Z,2.30
2018-12-22T09:32:04.591Z,7.00
2018-12-22T09:34:30.528Z,8.55
2018-12-22T09:37:00.257Z,4.97
2018-12-22T09:39:26.144Z,6.67
2018-12-22T09:41:53.993Z,2.90
2018-12-22T09:44:19.863Z,4.67
2018-12-22T09:46:49.569Z,10.70
2018-12-22T09:49:16.368Z,8.10
2018-12-22T09:51:43.231Z,6.33
2018-12-22T09:54:09.120Z,5.42
2018-12-22T09:56:38.956Z,12.90
2018-12-22T09:59:06.425Z,6.72
2018-12-22T10:01:32.652Z,7.87
2018-12-22T10:03:58.679Z,6.63
2018-12-22T10:06:24.601Z,6.67
2018-12-22T10:08:50.561Z,15.40
2018-12-22T10:11:16.616Z,7.23
2018-12-22T10:13:44.303Z,5.65
2018-12-22T10:16:10.289Z,7.25
2018-12-22T10:18:39.871Z,15.33
2018-12-22T10:21:05.802Z,10.75
2018-12-22T10:23:34.896Z,7.97
2018-12-22T10:26:00.785Z,9.03
2018-12-22T10:28:28.542Z,10.70
2018-12-22T10:30:54.420Z,7.97
2018-12-22T10:33:24.239Z,5.37
2018-12-22T10:35:50.088Z,8.93
2018-12-22T10:38:15.979Z,18.93
2018-12-22T10:40:42.244Z,7.40
2018-12-22T10:43:08.118Z,8.88
2018-12-22T10:45:35.080Z,8.00
2018-12-22T10:48:00.956Z,5.70
2018-12-22T10:50:29.722Z,2.83
2018-12-22T10:52:55.632Z,11.45
2018-12-22T10:55:24.295Z,7.40
2018-12-22T10:57:50.576Z,24.47
2018-12-22T11:00:20.325Z,9.05
2018-12-22T11:02:46.194Z,6.42
2018-12-22T11:05:15.750Z,6.40
2018-12-22T11:07:41.688Z,10.35
2018-12-22T11:10:12.206Z,3.17
2018-12-22T11:12:38.078Z,4.70
2018-12-22T11:15:07.217Z,7.23
2018-12-22T11:17:37.588Z,3.85
2018-12-22T11:20:12.722Z,2.92
2018-12-22T11:22:39.222Z,5.75
2018-12-22T11:25:09.846Z,4.07
2018-12-22T11:27:35.763Z,10.05
2018-12-22T11:30:01.653Z,7.90
2018-12-22T11:32:27.552Z,7.23
2018-12-22T11:34:53.444Z,5.00
2018-12-22T11:37:22.629Z,1.67
2018-12-22T11:39:48.525Z,2.45
2018-12-22T11:42:14.441Z,5.10
2018-12-22T11:44:40.339Z,9.73
2018-12-22T11:47:08.458Z,3.57
2018-12-22T11:49:35.151Z,2.40
2018-12-22T11:52:01.116Z,3.27
2018-12-22T11:54:26.995Z,3.37
2018-12-22T11:56:52.933Z,3.13
2018-12-22T11:59:18.820Z,12.40
2018-12-22T12:01:45.736Z,3.43
2018-12-22T12:04:11.656Z,5.28
2018-12-22T12:06:37.593Z,5.23
2018-12-22T12:09:04.615Z,4.93
2018-12-22T12:11:33.894Z,1.70
2018-12-22T12:14:00.088Z,2.95
2018-12-22T12:16:26.043Z,4.50
2018-12-22T12:19:05.511Z,3.43
2018-12-22T12:21:31.466Z,7.70
2018-12-22T12:23:57.409Z,2.40
2018-12-22T12:26:23.904Z,6.83
2018-12-22T12:28:49.845Z,6.00
2018-12-22T12:31:25.135Z,27.63
2018-12-22T12:33:51.358Z,5.78
2018-12-22T12:36:17.271Z,10.50
2018-12-22T12:38:43.147Z,6.70
2018-12-22T12:41:09.052Z,4.93
2018-12-22T12:43:34.952Z,3.40
2018-12-22T12:46:00.846Z,1.47
2018-12-22T12:48:26.746Z,10.57
2018-12-22T12:50:52.898Z,14.00
2018-12-22T12:53:22.478Z,4.05
2018-12-22T12:55:48.618Z,16.07
2018-12-22T12:58:14.529Z,3.73
2018-12-22T13:00:40.413Z,6.93
2018-12-22T13:03:08.356Z,11.07
2018-12-22T13:05:34.419Z,7.87
2018-12-22T13:08:00.395Z,10.27
2018-12-22T13:10:27.766Z,8.67
2018-12-22T13:13:01.089Z,6.53
2018-12-22T13:15:27.094Z,4.30
2018-12-22T13:17:53.020Z,4.93
2018-12-22T13:20:21.948Z,8.23
2018-12-22T13:22:48.089Z,6.65
2018-12-22T13:25:13.983Z,7.58
2018-12-22T13:27:39.837Z,9.17
2018-12-22T13:30:10.501Z,11.23
2018-12-22T13:32:37.782Z,9.30
2018-12-22T13:35:08.557Z,5.87
2018-12-22T13:37:34.508Z,5.65
2018-12-22T13:40:00.411Z,4.57
2018-12-22T13:42:26.305Z,5.70
2018-12-22T13:44:52.198Z,9.40
2018-12-22T13:47:18.099Z,11.90
2018-12-22T13:49:44.659Z,10.17
2018-12-22T13:52:10.587Z,3.42
2018-12-22T13:54:36.842Z,6.50
2018-12-22T13:57:02.722Z,10.23
2018-12-22T13:59:28.636Z,9.57
2018-12-22T14:01:54.767Z,11.43
2018-12-22T14:04:20.686Z,6.30
2018-12-22T14:06:46.600Z,21.90
2018-12-22T14:09:12.493Z,6.07
2018-12-22T14:11:38.454Z,4.33
2018-12-22T14:14:06.870Z,12.43
2018-12-22T14:16:34.419Z,8.93
2018-12-22T14:19:00.359Z,4.58
2018-12-22T14:21:26.230Z,9.80
2018-12-22T14:23:59.036Z,4.70
2018-12-22T14:26:24.909Z,5.25
2018-12-22T14:28:50.791Z,5.30
2018-12-22T14:31:16.724Z,4.70
2018-12-22T14:33:43.508Z,5.20
2018-12-22T14:36:09.656Z,3.60
2018-12-22T14:38:50.638Z,7.65
2018-12-22T14:41:16.527Z,5.62
2018-12-22T14:43:42.410Z,10.07
2018-12-22T14:46:08.345Z,6.53
2018-12-22T14:48:34.660Z,5.43
2018-12-22T14:51:00.542Z,6.00
2018-12-22T14:53:26.441Z,15.07
2018-12-22T14:55:54.067Z,15.53
2018-12-22T14:58:20.216Z,11.93
2018-12-22T15:00:46.139Z,7.08
2018-12-22T15:03:12.019Z,8.10
2018-12-22T15:05:37.912Z,15.13
2018-12-22T15:08:07.868Z,5.03
2018-12-22T15:10:34.737Z,6.83
2018-12-22T15:13:00.794Z,7.90
2018-12-22T15:15:26.661Z,7.72
2018-12-22T15:17:52.553Z,11.03
2018-12-22T15:20:24.657Z,11.83
2018-12-22T15:22:50.943Z,18.65
2018-12-22T15:25:16.867Z,15.45
2018-12-22T15:27:42.747Z,6.63
2018-12-22T15:30:12.187Z,11.33
2018-12-22T15:32:44.104Z,13.88
2018-12-22T15:35:07.989Z,5.62
2018-12-22T15:37:34.588Z,9.93
2018-12-22T15:40:00.510Z,9.43
2018-12-22T15:42:26.425Z,24.63
2018-12-22T15:44:52.335Z,14.63
2018-12-22T15:47:18.300Z,8.15
2018-12-22T15:49:44.189Z,10.17
2018-12-22T15:52:10.110Z,10.00
2018-12-22T15:54:35.974Z,4.93
2018-12-22T15:57:01.835Z,11.83
2018-12-22T15:59:27.723Z,17.77
2018-12-22T16:01:53.693Z,11.13
2018-12-22T16:04:19.612Z,9.43
2018-12-22T16:06:45.539Z,12.10
2018-12-22T16:09:11.424Z,4.83
2018-12-22T16:11:37.730Z,6.90
2018-12-22T16:14:03.625Z,4.72
2018-12-22T16:16:29.649Z,5.08
2018-12-22T16:18:55.623Z,4.00
2018-12-22T16:21:21.489Z,2.27
2018-12-22T16:23:47.511Z,2.90
2018-12-22T16:26:14.637Z,7.60
2018-12-22T16:28:40.656Z,3.83
2018-12-22T16:31:06.653Z,1.52
2018-12-22T16:33:32.536Z,15.98
2018-12-22T16:36:01.600Z,10.03
2018-12-22T16:38:27.498Z,4.00
2018-12-22T16:40:57.261Z,7.87
2018-12-22T16:43:23.209Z,5.50
2018-12-22T16:45:49.108Z,10.63
2018-12-22T16:48:15.006Z,10.50
2018-12-22T16:50:40.901Z,8.07
2018-12-22T16:53:09.684Z,10.40
2018-12-22T16:55:35.575Z,10.38
2018-12-22T16:58:09.903Z,26.40
2018-12-22T17:00:51.887Z,10.68
2018-12-22T17:03:17.743Z,15.95
2018-12-22T17:05:43.654Z,18.90
2018-12-22T17:08:09.614Z,10.37
2018-12-22T17:10:35.531Z,8.87
2018-12-22T17:13:01.423Z,12.17
2018-12-22T17:15:27.367Z,15.43
2018-12-22T17:17:53.333Z,13.87
2018-12-22T17:20:19.176Z,12.87
2018-12-22T17:23:00.397Z,14.57
2018-12-22T17:25:26.426Z,15.32
2018-12-22T17:27:52.307Z,14.95
2018-12-22T17:30:18.225Z,16.37
2018-12-22T17:32:44.117Z,11.90
2018-12-22T17:35:13.547Z,13.33
2018-12-22T17:37:39.460Z,11.68
2018-12-22T17:40:09.552Z,8.13
2018-12-22T17:42:35.312Z,7.45
2018-12-22T17:45:01.183Z,8.47
2018-12-22T17:47:27.114Z,9.50
2018-12-22T17:49:52.968Z,7.43
2018-12-22T17:52:18.813Z,9.53
2018-12-22T17:54:44.728Z,13.80
2018-12-22T17:57:10.600Z,11.40
2018-12-22T17:59:36.520Z,9.23
2018-12-22T18:02:02.766Z,16.40
2018-12-22T18:04:28.662Z,6.58
2018-12-22T18:06:54.532Z,10.27
2018-12-22T18:09:20.548Z,11.90
2018-12-22T18:11:48.399Z,11.93
2018-12-22T18:14:14.316Z,12.07
2018-12-22T18:16:40.213Z,13.20
2018-12-22T18:19:06.095Z,13.10
2018-12-22T18:21:32.073Z,9.00
2018-12-22T18:23:58.072Z,7.73
2018-12-22T18:26:25.144Z,16.17
2018-12-22T18:28:51.220Z,11.85
2018-12-22T18:31:18.206Z,12.33
2018-12-22T18:33:44.526Z,8.73
2018-12-22T18:36:10.474Z,17.87
2018-12-22T18:38:36.351Z,16.67
2018-12-22T18:41:02.411Z,10.13
2018-12-22T18:43:28.281Z,11.85
2018-12-22T18:45:54.456Z,3.60
2018-12-22T18:48:22.683Z,19.02
2018-12-22T18:50:48.731Z,8.80
2018-12-22T18:53:14.645Z,12.33
2018-12-22T18:55:40.533Z,14.27
2018-12-22T18:58:08.481Z,12.57
2018-12-22T19:00:34.392Z,9.15
2018-12-22T19:03:03.567Z,10.33
2018-12-22T19:05:29.481Z,10.38
2018-12-22T19:07:57.414Z,19.83
2018-12-22T19:10:28.551Z,9.40
2018-12-22T19:12:56.153Z,13.28
2018-12-22T19:15:22.944Z,9.23
2018-12-22T19:17:48.879Z,9.03
2018-12-22T19:20:22.446Z,22.23
2018-12-22T19:22:48.398Z,18.77
2018-12-22T19:25:14.341Z,13.80
2018-12-22T19:27:40.280Z,9.83
2018-12-22T19:30:07.530Z,11.07
2018-12-22T19:32:33.405Z,13.88
2018-12-22T19:35:07.381Z,13.13
2018-12-22T19:37:33.525Z,7.85
2018-12-22T19:39:59.469Z,13.50
2018-12-22T19:42:25.439Z,14.20
2018-12-22T19:44:51.391Z,10.73
2018-12-22T19:47:17.309Z,8.43
2018-12-22T19:49:43.185Z,8.00
2018-12-22T19:52:09.216Z,10.30
2018-12-22T19:54:35.119Z,9.68
2018-12-22T19:57:01.014Z,11.70
2018-12-22T19:59:26.940Z,9.43
2018-12-22T20:01:52.808Z,6.30
2018-12-22T20:04:18.719Z,11.47
2018-12-22T20:06:45.464Z,5.70
2018-12-22T20:09:11.934Z,4.65
2018-12-22T20:11:39.207Z,17.92
2018-12-22T20:14:05.064Z,14.60
2018-12-22T20:16:34.875Z,15.67
2018-12-22T20:19:03.774Z,12.63
2018-12-22T20:21:30.148Z,16.35
2018-12-22T20:23:56.141Z,13.73
2018-12-22T20:26:22.075Z,20.97
2018-12-22T20:28:48.001Z,18.10
2018-12-22T20:31:13.888Z,27.70
2018-12-22T20:33:40.390Z,12.53
2018-12-22T20:36:06.309Z,14.45
2018-12-22T20:38:35.920Z,13.93
2018-12-22T20:41:01.806Z,17.65
2018-12-22T20:43:34.481Z,14.40
2018-12-22T20:46:00.789Z,10.13
2018-12-22T20:48:26.723Z,9.30
2018-12-22T20:50:53.007Z,12.53
2018-12-22T20:53:19.342Z,10.23
2018-12-22T20:55:45.203Z,15.53
2018-12-22T20:58:14.660Z,18.00
2018-12-22T21:00:40.591Z,11.85
2018-12-22T21:03:06.478Z,17.77
2018-12-22T21:05:34.019Z,19.00
2018-12-22T21:07:59.902Z,20.90
2018-12-22T21:10:25.863Z,10.93
2018-12-22T21:12:51.759Z,15.80
2018-12-22T21:15:21.415Z,14.07
2018-12-22T21:17:47.285Z,13.60
2018-12-22T21:20:14.895Z,17.00
2018-12-22T21:22:40.804Z,13.80
2018-12-22T21:25:10.189Z,14.30
2018-12-22T21:27:36.039Z,12.33
2018-12-22T21:30:06.051Z,8.17
2018-12-22T21:32:35.350Z,6.22
2018-12-22T21:35:01.514Z,14.38
2018-12-22T21:37:27.615Z,16.33
2018-12-22T21:39:53.717Z,13.48
2018-12-22T21:42:19.683Z,18.57
2018-12-22T21:44:45.564Z,5.27
2018-12-22T21:47:11.507Z,5.90
2018-12-22T21:49:37.675Z,14.23
2018-12-22T21:52:07.591Z,5.33
2018-12-22T21:54:33.482Z,7.37
2018-12-22T21:57:00.268Z,8.80
2018-12-22T21:59:26.167Z,7.92
2018-12-22T22:01:55.825Z,17.17
2018-12-22T22:04:21.720Z,10.50
2018-12-22T22:06:51.415Z,10.33
2018-12-22T22:09:19.167Z,7.62
2018-12-22T22:11:45.180Z,8.33
2018-12-22T22:14:11.074Z,8.77
2018-12-22T22:16:37.057Z,7.27
2018-12-22T22:19:03.091Z,11.95
2018-12-22T22:21:29.001Z,10.38
2018-12-22T22:23:56.048Z,10.63
2018-12-22T22:26:21.922Z,11.15
2018-12-22T22:28:50.193Z,16.63
2018-12-22T22:31:16.128Z,19.45
2018-12-22T22:36:13.218Z,7.28
2018-12-22T22:38:39.976Z,10.40
2018-12-22T22:41:05.854Z,7.33
2018-12-22T22:43:35.388Z,17.33
2018-12-22T22:46:01.289Z,17.75
2018-12-22T22:48:30.313Z,16.60
2018-12-22T22:50:56.223Z,15.90
2018-12-22T22:53:22.166Z,21.43
2018-12-22T22:55:48.062Z,10.77
2018-12-22T22:58:13.948Z,10.10
2018-12-22T23:00:42.270Z,15.33
2018-12-22T23:03:08.177Z,13.20
2018-12-22T23:05:35.846Z,8.53
2018-12-22T23:08:01.686Z,12.55
2018-12-22T23:10:30.383Z,9.70
2018-12-22T23:12:56.267Z,11.95
2018-12-22T23:15:25.390Z,14.03
2018-12-22T23:17:54.296Z,20.02
2018-12-22T23:20:20.258Z,6.60
2018-12-22T23:22:46.122Z,12.03
2018-12-22T23:25:17.199Z,14.03
2018-12-22T23:27:43.076Z,12.33
2018-12-22T23:30:09.133Z,15.43
2018-12-22T23:32:35.035Z,18.40
2018-12-22T23:35:03.179Z,9.57
2018-12-22T23:37:29.064Z,12.35
2018-12-22T23:39:55.219Z,12.60
2018-12-22T23:42:21.146Z,9.73
2018-12-22T23:44:47.033Z,8.90
2018-12-22T23:47:15.912Z,11.33
2018-12-22T23:49:41.797Z,16.07
2018-12-22T23:52:10.258Z,20.73
2018-12-22T23:54:36.150Z,17.57
2018-12-22T23:59:32.851Z,10.05
